Ashland, Texas
Current Conditions -  °F | °C
As of 1:53 AM on Wednesday 26 Nov 2014 (Local Time) from KGGG Reporting Station
Clear Clear  
Wind Chill:   Ceiling: Unl
Heat Index:   Visibility: 10mi
Dew Point:   Wind: 8mph
Humidity: 70%   Direction: 200°SSW
Pressure: 30.12"   Gusts: NA
Location:  32.6998°N, 94.6696°W
Report Text: KGGG 260753Z AUTO 20007KT 10SM CLR 06/01 A3012 RMK AO2 SLP199 T00560006
Loading
Personal Weather Stations






























Interactive Weather Map New forecast layout! Learn more

10-Day Weather Forecast

Advertisements
Track Severe Weather on mobile